createdAt,value
2022-11-19T00:00:53.459Z,100249.63
2022-11-19T00:01:59.912Z,100253.94
2022-11-19T00:03:01.483Z,100245.28
2022-11-19T00:04:07.780Z,100243.63
2022-11-19T00:05:09.413Z,100249.63
2022-11-19T00:06:14.220Z,100250.34
2022-11-19T00:07:15.727Z,100251.16
2022-11-19T00:08:20.728Z,100241.44
2022-11-19T00:09:22.307Z,100243.13
2022-11-19T00:10:25.783Z,100243.13
2022-11-19T00:11:46.965Z,100251.75
2022-11-19T00:12:54.508Z,100248.41
2022-11-19T00:13:56.984Z,100241.44
2022-11-19T00:14:58.490Z,100246.72
2022-11-19T00:16:06.215Z,100246.72
2022-11-19T00:17:09.207Z,100249.63
2022-11-19T00:18:11.677Z,100244.34
2022-11-19T00:19:13.250Z,100249.63
2022-11-19T00:20:17.486Z,100249.75
2022-11-19T00:21:19.006Z,100244.59
2022-11-19T00:22:21.464Z,100241.94
2022-11-19T00:23:22.995Z,100247.13
2022-11-19T00:24:28.650Z,100244.34
2022-11-19T00:25:30.597Z,100241.69
2022-11-19T00:26:33.300Z,100240.84
2022-11-19T00:27:34.849Z,100252.25
2022-11-19T00:28:38.070Z,100244.47
2022-11-19T00:29:39.549Z,100241.69
2022-11-19T00:30:47.981Z,100246.13
2022-11-19T00:31:50.212Z,100242.78
2022-11-19T00:32:54.012Z,100242.88
2022-11-19T00:33:55.639Z,100242.88
2022-11-19T00:34:58.144Z,100240.97
2022-11-19T00:36:01.168Z,100246.13
2022-11-19T00:37:04.095Z,100242.88
2022-11-19T00:38:06.122Z,100239.44
2022-11-19T00:39:10.298Z,100247.47
2022-11-19T00:40:12.699Z,100248.31
2022-11-19T00:41:15.149Z,100250.22
2022-11-19T00:42:16.659Z,100249.28
2022-11-19T00:43:36.910Z,100254.69
2022-11-19T00:44:39.371Z,100252.06
2022-11-19T00:45:41.170Z,100254.94
2022-11-19T00:46:43.630Z,100259.50
2022-11-19T00:47:45.106Z,100256.13
2022-11-19T00:48:50.176Z,100257.09
2022-11-19T00:49:51.738Z,100259.03
2022-11-19T00:50:54.198Z,100262.63
2022-11-19T00:51:55.752Z,100256.50
2022-11-19T00:52:59.442Z,100260.94
2022-11-19T00:54:00.954Z,100262.88
2022-11-19T00:55:03.453Z,100257.81
2022-11-19T00:56:07.466Z,100259.72
2022-11-19T00:57:09.926Z,100260.22
2022-11-19T00:58:11.428Z,100262.16
2022-11-19T00:59:13.915Z,100263.09
2022-11-19T01:00:16.723Z,100279.94
2022-11-19T01:01:21.120Z,100274.88
2022-11-19T01:02:22.622Z,100272.47
2022-11-19T01:03:25.546Z,100279.78
2022-11-19T01:04:29.487Z,100273.94
2022-11-19T01:05:31.146Z,100269.69
2022-11-19T01:06:34.061Z,100279.66
2022-11-19T01:07:35.579Z,100281.59
2022-11-19T01:08:38.739Z,100273.91
2022-11-19T01:09:40.237Z,100273.19
2022-11-19T01:10:43.549Z,100278.47
2022-11-19T01:11:46.109Z,100275.09
2022-11-19T01:13:06.168Z,100280.28
2022-11-19T01:14:09.032Z,100278.72
2022-11-19T01:15:10.671Z,100282.31
2022-11-19T01:16:15.338Z,100283.25
2022-11-19T01:17:16.832Z,100284.34
2022-11-19T01:18:19.947Z,100292.50
2022-11-19T01:19:22.655Z,100289.25
2022-11-19T01:20:25.908Z,100291.88
2022-11-19T01:21:30.934Z,100293.81
2022-11-19T01:22:32.489Z,100292.97
2022-11-19T01:23:35.312Z,100295.72
2022-11-19T01:24:36.849Z,100295.72
2022-11-19T01:25:39.614Z,100292.34
2022-11-19T01:26:45.822Z,100293.31
2022-11-19T01:27:47.881Z,100294.25
2022-11-19T01:28:51.125Z,100292.59
2022-11-19T01:29:52.684Z,100294.50
2022-11-19T01:30:55.198Z,100291.97
2022-11-19T01:31:57.663Z,100297.38
2022-11-19T01:32:59.220Z,100293.25
2022-11-19T01:34:01.778Z,100295.16
2022-11-19T01:35:03.868Z,100298.97
2022-11-19T01:36:11.548Z,100294.06
2022-11-19T01:37:13.064Z,100291.53
2022-11-19T01:38:15.543Z,100295.34
2022-11-19T01:39:17.350Z,100284.06
2022-11-19T01:40:20.188Z,100295.56
2022-11-19T01:41:24.849Z,100291.97
2022-11-19T01:42:47.812Z,100297.38
2022-11-19T01:43:52.151Z,100300.97
2022-11-19T01:45:01.005Z,100303.72
2022-11-19T01:46:03.486Z,100302.06
2022-11-19T01:47:05.094Z,100304.69
2022-11-19T01:48:13.210Z,100299.41
2022-11-19T01:49:18.935Z,100305.63
2022-11-19T01:50:21.463Z,100306.72
2022-11-19T01:51:29.115Z,100309.44
2022-11-19T01:52:30.793Z,100307.75
2022-11-19T01:53:35.690Z,100311.59
2022-11-19T01:54:44.535Z,100306.56
2022-11-19T01:55:47.522Z,100308.56
2022-11-19T01:56:50.064Z,100313.94
2022-11-19T01:57:55.337Z,100305.31
2022-11-19T01:59:01.172Z,100308.81
2022-11-19T02:00:03.203Z,100318.50
2022-11-19T02:01:10.589Z,100308.06
2022-11-19T02:02:12.761Z,100315.88
2022-11-19T02:03:16.457Z,100318.59
2022-11-19T02:04:19.049Z,100315.88
2022-11-19T02:05:21.931Z,100320.31
2022-11-19T02:06:24.834Z,100315.25
2022-11-19T02:07:29.340Z,100315.97
2022-11-19T02:08:41.919Z,100316.91
2022-11-19T02:09:45.259Z,100319.69
2022-11-19T02:11:00.491Z,100324.81
2022-11-19T02:12:14.868Z,100315.25
2022-11-19T02:13:26.958Z,100318.75
2022-11-19T02:14:50.512Z,100319.47
2022-11-19T02:16:03.877Z,100326.41
2022-11-19T02:17:16.306Z,100326.41
2022-11-19T02:18:40.018Z,100330.00
2022-11-19T02:20:20.604Z,100332.63
2022-11-19T02:21:33.513Z,100325.81
2022-11-19T02:22:56.441Z,100342.56
2022-11-19T02:24:25.256Z,100332.16
2022-11-19T02:25:44.648Z,100333.81
2022-11-19T02:27:20.343Z,100338.38
2022-11-19T02:28:31.994Z,100329.75
2022-11-19T02:30:02.410Z,100338.06
2022-11-19T02:31:12.563Z,100336.63
2022-11-19T02:32:16.416Z,100336.84
2022-11-19T02:33:26.552Z,100337.03
2022-11-19T02:34:33.631Z,100335.38
2022-11-19T02:35:50.572Z,100332.63
2022-11-19T02:36:59.195Z,100338.75
2022-11-19T02:38:05.915Z,100338.75
2022-11-19T02:39:15.727Z,100343.16
2022-11-19T02:40:24.260Z,100347.59
2022-11-19T02:41:34.373Z,100347.59
2022-11-19T02:42:45.221Z,100340.31
2022-11-19T02:43:47.966Z,100344.00
2022-11-19T02:44:59.678Z,100340.66
2022-11-19T02:46:06.798Z,100341.50
2022-11-19T02:47:13.587Z,100338.25
2022-11-19T02:48:21.706Z,100340.34
2022-11-19T02:49:29.624Z,100343.22
2022-11-19T02:50:34.767Z,100342.34
2022-11-19T02:51:37.340Z,100342.56
2022-11-19T02:52:39.518Z,100341.94
2022-11-19T02:53:42.269Z,100342.16
2022-11-19T02:54:43.984Z,100349.34
2022-11-19T02:56:08.548Z,100346.94
2022-11-19T02:57:11.751Z,100341.88
2022-11-19T02:58:32.708Z,100348.19
2022-11-19T02:59:58.812Z,100346.63
2022-11-19T03:01:21.335Z,100346.97
2022-11-19T03:02:46.158Z,100351.47
2022-11-19T03:04:07.542Z,100345.56
2022-11-19T03:05:13.799Z,100342.00
2022-11-19T03:06:18.847Z,100343.69
2022-11-19T03:07:21.657Z,100343.78
2022-11-19T03:08:24.682Z,100349.69
2022-11-19T03:09:27.472Z,100354.03
2022-11-19T03:10:43.226Z,100349.59
2022-11-19T03:11:52.006Z,100353.06
2022-11-19T03:12:59.632Z,100354.88
2022-11-19T03:14:32.496Z,100352.31
2022-11-19T03:16:12.276Z,100355.91
2022-11-19T03:17:21.367Z,100358.88
2022-11-19T03:18:32.012Z,100349.19
2022-11-19T03:19:37.177Z,100354.66
2022-11-19T03:20:42.518Z,100353.81
2022-11-19T03:21:49.971Z,100359.19
2022-11-19T03:22:55.734Z,100359.41
2022-11-19T03:24:02.564Z,100362.16
2022-11-19T03:25:10.701Z,100360.69
2022-11-19T03:26:20.252Z,100369.53
2022-11-19T03:27:26.847Z,100367.72
2022-11-19T03:28:35.732Z,100366.88
2022-11-19T03:29:42.484Z,100360.75
2022-11-19T03:30:45.945Z,100362.47
2022-11-19T03:31:52.495Z,100371.31
2022-11-19T03:33:02.007Z,100367.72
2022-11-19T03:34:10.514Z,100366.03
2022-11-19T03:35:17.260Z,100360.03
2022-11-19T03:36:24.217Z,100367.94
2022-11-19T03:37:29.342Z,100373.00
2022-11-19T03:38:35.822Z,100366.78
2022-11-19T03:39:38.681Z,100366.78
2022-11-19T03:40:43.118Z,100373.84
2022-11-19T03:41:47.896Z,100368.56
2022-11-19T03:42:53.963Z,100368.56
2022-11-19T03:44:00.487Z,100367.72
2022-11-19T03:45:08.280Z,100378.25
2022-11-19T03:46:14.605Z,100366.16
2022-11-19T03:47:20.958Z,100367.00
2022-11-19T03:48:25.811Z,100367.94
2022-11-19T03:49:32.880Z,100369.81
2022-11-19T03:50:40.784Z,100369.81
2022-11-19T03:51:49.325Z,100371.72
2022-11-19T03:52:51.134Z,100367.53
2022-11-19T03:53:54.268Z,100370.25
2022-11-19T03:54:56.808Z,100370.16
2022-11-19T03:56:02.011Z,100376.16
2022-11-19T03:57:06.619Z,100375.22
2022-11-19T03:58:10.631Z,100378.56
2022-11-19T03:59:13.798Z,100379.31
2022-11-19T04:00:16.564Z,100380.19
2022-11-19T04:01:19.146Z,100380.91
2022-11-19T04:02:21.180Z,100373.00
2022-11-19T04:03:25.023Z,100374.69
2022-11-19T04:04:36.817Z,100382.47
2022-11-19T04:05:39.322Z,100388.50
2022-11-19T04:06:40.847Z,100388.59
2022-11-19T04:07:43.348Z,100391.94
2022-11-19T04:08:44.819Z,100390.16
2022-11-19T04:09:47.441Z,100391.94
2022-11-19T04:10:49.018Z,100388.50
2022-11-19T04:12:52.021Z,100384.81
2022-11-19T04:13:54.522Z,100397.00
2022-11-19T04:14:57.014Z,100390.91
2022-11-19T04:15:58.525Z,100394.50
2022-11-19T04:17:01.196Z,100396.41
2022-11-19T04:18:02.701Z,100397.44
2022-11-19T04:19:06.875Z,100401.97
2022-11-19T04:20:10.432Z,100396.06
2022-11-19T04:21:11.944Z,100400.69
2022-11-19T04:22:14.560Z,100402.59
2022-11-19T04:23:16.046Z,100395.56
2022-11-19T04:24:18.818Z,100401.63
2022-11-19T04:25:20.399Z,100396.38
2022-11-19T04:26:22.960Z,100410.31
2022-11-19T04:27:24.444Z,100397.13
2022-11-19T04:28:26.892Z,100404.19
2022-11-19T04:29:28.483Z,100398.06
2022-11-19T04:30:30.982Z,100402.59
2022-11-19T04:31:33.163Z,100400.81
2022-11-19T04:32:35.641Z,100400.91
2022-11-19T04:33:37.152Z,100403.56
2022-11-19T04:34:40.944Z,100404.59
2022-11-19T04:35:44.690Z,100400.19
2022-11-19T04:36:47.611Z,100405.53
2022-11-19T04:37:49.295Z,100412.59
2022-11-19T04:38:53.970Z,100407.25
2022-11-19T04:39:55.461Z,100407.97
2022-11-19T04:40:58.185Z,100401.97
2022-11-19T04:41:59.718Z,100402.06
2022-11-19T04:43:02.247Z,100405.66
2022-11-19T04:44:04.158Z,100412.81
2022-11-19T04:45:07.691Z,100409.31
2022-11-19T04:46:09.273Z,100405.88
2022-11-19T04:47:11.827Z,100414.59
2022-11-19T04:48:13.353Z,100416.41
2022-11-19T04:49:15.967Z,100418.19
2022-11-19T04:50:18.843Z,100419.03
2022-11-19T04:51:21.355Z,100417.22
2022-11-19T04:52:22.874Z,100419.78
2022-11-19T04:53:25.370Z,100418.91
2022-11-19T04:54:26.979Z,100418.06
2022-11-19T04:55:29.425Z,100425.03
2022-11-19T04:56:30.927Z,100423.34
2022-11-19T04:57:33.417Z,100419.97
2022-11-19T04:58:35.325Z,100427.88
2022-11-19T04:59:37.804Z,100428.81
2022-11-19T05:00:39.355Z,100422.69
2022-11-19T05:01:42.839Z,100426.31
2022-11-19T05:02:44.488Z,100427.13
2022-11-19T05:03:47.240Z,100432.38
2022-11-19T05:04:48.750Z,100425.44
2022-11-19T05:05:52.680Z,100430.72
2022-11-19T05:06:54.341Z,100436.00
2022-11-19T05:07:56.910Z,100441.25
2022-11-19T05:08:58.468Z,100437.78
2022-11-19T05:10:00.961Z,100436.06
2022-11-19T05:11:02.500Z,100443.03
2022-11-19T05:12:05.666Z,100437.84
2022-11-19T05:13:07.154Z,100450.22
2022-11-19T05:14:09.839Z,100449.34
2022-11-19T05:15:11.557Z,100442.31
2022-11-19T05:16:14.140Z,100447.56
2022-11-19T05:17:15.668Z,100452.00
2022-11-19T05:18:18.131Z,100447.75
2022-11-19T05:19:19.889Z,100453.88
2022-11-19T05:20:22.655Z,100450.28
2022-11-19T05:21:25.516Z,100450.22
2022-11-19T05:22:28.014Z,100454.63
2022-11-19T05:23:29.536Z,100450.22
2022-11-19T05:24:32.091Z,100459.69
2022-11-19T05:25:33.629Z,100457.91
2022-11-19T05:26:36.243Z,100454.31
2022-11-19T05:27:37.782Z,100456.09
2022-11-19T05:28:40.378Z,100452.72
2022-11-19T05:29:41.970Z,100457.06
2022-11-19T05:30:44.555Z,100456.22
2022-11-19T05:31:46.037Z,100463.97
2022-11-19T05:32:48.871Z,100459.56
2022-11-19T05:33:50.386Z,100456.00
2022-11-19T05:34:52.870Z,100460.22
2022-11-19T05:35:54.392Z,100460.13
2022-11-19T05:36:58.419Z,100458.34
2022-11-19T05:38:00.141Z,100463.59
2022-11-19T05:39:02.661Z,100463.69
2022-11-19T05:40:05.481Z,100459.38
2022-11-19T05:41:08.000Z,100465.47
2022-11-19T05:42:09.518Z,100455.78
2022-11-19T05:43:12.011Z,100466.31
2022-11-19T05:44:13.550Z,100454.94
2022-11-19T05:45:16.175Z,100468.03
2022-11-19T05:46:17.691Z,100462.84
2022-11-19T05:47:20.205Z,100462.13
2022-11-19T05:48:22.652Z,100459.56
2022-11-19T05:49:24.181Z,100457.06
2022-11-19T05:50:26.786Z,100466.75
2022-11-19T05:51:28.424Z,100466.75
2022-11-19T05:52:32.468Z,100474.72
2022-11-19T05:53:34.052Z,100471.28
2022-11-19T05:54:36.690Z,100471.38
2022-11-19T05:55:38.211Z,100467.88
2022-11-19T05:56:40.777Z,100471.38
2022-11-19T05:57:42.653Z,100474.09
2022-11-19T05:58:45.129Z,100478.63
2022-11-19T05:59:46.643Z,100474.41
2022-11-19T06:00:49.177Z,100478.72
2022-11-19T06:01:50.746Z,100473.47
2022-11-19T06:02:53.315Z,100483.03
2022-11-19T06:03:55.302Z,100477.69
2022-11-19T06:04:58.310Z,100479.47
2022-11-19T06:06:00.258Z,100480.41
2022-11-19T06:07:02.754Z,100480.53
2022-11-19T06:08:05.908Z,100480.59
2022-11-19T06:09:08.685Z,100480.72
2022-11-19T06:10:10.840Z,100488.50
2022-11-19T06:11:33.680Z,100490.19
2022-11-19T06:12:35.309Z,100481.53
2022-11-19T06:13:37.786Z,100492.91
2022-11-19T06:14:39.333Z,100491.13
2022-11-19T06:15:41.800Z,100489.44
2022-11-19T06:16:43.551Z,100496.41
2022-11-19T06:17:45.996Z,100493.03
2022-11-19T06:18:47.487Z,100498.38
2022-11-19T06:19:49.963Z,100501.88
2022-11-19T06:20:51.562Z,100506.19
2022-11-19T06:21:54.676Z,100496.41
2022-11-19T06:22:56.455Z,100502.44
2022-11-19T06:24:00.335Z,100507.56
2022-11-19T06:25:01.923Z,100499.78
2022-11-19T06:26:04.418Z,100503.38
2022-11-19T06:27:05.946Z,100503.25
2022-11-19T06:28:08.401Z,100508.44
2022-11-19T06:29:11.329Z,100505.78
2022-11-19T06:30:16.035Z,100513.69
2022-11-19T06:31:17.894Z,100511.16
2022-11-19T06:32:20.482Z,100508.63
2022-11-19T06:33:22.011Z,100516.63
2022-11-19T06:34:24.521Z,100512.53
2022-11-19T06:35:26.005Z,100524.91
2022-11-19T06:36:33.719Z,100519.84
2022-11-19T06:37:39.912Z,100518.16
2022-11-19T06:38:41.976Z,100525.22
2022-11-19T06:39:45.784Z,100519.00
2022-11-19T06:40:47.499Z,100523.53
2022-11-19T06:41:49.974Z,100534.06
2022-11-19T06:42:51.497Z,100528.03
2022-11-19T06:43:53.965Z,100537.63
2022-11-19T06:44:55.498Z,100539.34
2022-11-19T06:45:58.038Z,100531.50
2022-11-19T06:46:59.577Z,100542.16
2022-11-19T06:48:02.125Z,100543.09
2022-11-19T06:49:05.626Z,100539.72
2022-11-19T06:50:10.012Z,100539.81
2022-11-19T06:51:11.617Z,100548.56
2022-11-19T06:52:14.099Z,100540.66
2022-11-19T06:53:15.791Z,100541.41
2022-11-19T06:54:18.279Z,100551.91
2022-11-19T06:55:21.287Z,100545.91
2022-11-19T06:56:23.791Z,100547.72
2022-11-19T06:57:25.377Z,100553.81
2022-11-19T06:58:28.506Z,100552.13
2022-11-19T06:59:30.090Z,100552.13
2022-11-19T07:00:32.919Z,100555.72
2022-11-19T07:01:34.592Z,100555.91
2022-11-19T07:02:37.686Z,100555.25
2022-11-19T07:03:39.188Z,100565.69
2022-11-19T07:04:41.725Z,100561.34
2022-11-19T07:05:43.379Z,100563.03
2022-11-19T07:06:46.090Z,100567.38
2022-11-19T07:07:47.613Z,100565.47
2022-11-19T07:08:50.140Z,100576.84
2022-11-19T07:09:51.653Z,100576.78
2022-11-19T07:10:56.439Z,100575.06
2022-11-19T07:11:58.087Z,100582.03
2022-11-19T07:13:00.710Z,100583.81
2022-11-19T07:14:03.773Z,100582.03
2022-11-19T07:15:06.893Z,100582.03
2022-11-19T07:16:08.655Z,100580.34
2022-11-19T07:17:11.144Z,100583.91
2022-11-19T07:18:13.022Z,100584.88
2022-11-19T07:19:15.550Z,100584.75
2022-11-19T07:20:17.584Z,100586.44
2022-11-19T07:21:20.141Z,100591.59
2022-11-19T07:22:22.636Z,100588.13
2022-11-19T07:23:24.164Z,100594.03
2022-11-19T07:24:26.660Z,100582.56
2022-11-19T07:25:29.212Z,100579.88
2022-11-19T07:26:33.240Z,100585.88
2022-11-19T07:27:35.789Z,100590.28
2022-11-19T07:28:37.283Z,100583.16
2022-11-19T07:29:39.819Z,100583.88
2022-11-19T07:30:41.305Z,100591.66
2022-11-19T07:31:45.727Z,100587.25
2022-11-19T07:32:47.331Z,100588.94
2022-11-19T07:33:49.903Z,100594.13
2022-11-19T07:34:51.445Z,100588.88
2022-11-19T07:35:53.907Z,100593.28
2022-11-19T07:36:56.419Z,100595.91
2022-11-19T07:37:57.935Z,100592.44
2022-11-19T07:39:00.409Z,100603.81
2022-11-19T07:40:02.197Z,100602.03
2022-11-19T07:41:27.169Z,100601.19
2022-11-19T07:42:48.590Z,100604.75
2022-11-19T07:43:50.432Z,100598.56
2022-11-19T07:44:54.953Z,100609.81
2022-11-19T07:45:57.742Z,100600.22
2022-11-19T07:47:00.412Z,100601.25
2022-11-19T07:48:01.938Z,100611.06
2022-11-19T07:49:04.643Z,100610.28
2022-11-19T07:50:07.077Z,100599.03
2022-11-19T07:51:09.615Z,100610.41
2022-11-19T07:52:11.091Z,100611.34
2022-11-19T07:53:13.532Z,100607.78
2022-11-19T07:54:15.191Z,100608.69
2022-11-19T07:55:17.905Z,100609.56
2022-11-19T07:56:20.281Z,100609.47
2022-11-19T07:57:29.665Z,100618.97
2022-11-19T07:58:33.055Z,100614.63
2022-11-19T07:59:35.588Z,100615.47
2022-11-19T08:00:37.138Z,100613.78
2022-11-19T08:01:39.826Z,100616.41
2022-11-19T08:02:42.351Z,100620.81
2022-11-19T08:03:46.097Z,100618.97
2022-11-19T08:04:48.611Z,100619.81
2022-11-19T08:05:50.176Z,100623.38
2022-11-19T08:06:52.652Z,100629.38
2022-11-19T08:07:54.178Z,100633.50
2022-11-19T08:08:57.586Z,100641.31
2022-11-19T08:09:59.091Z,100630.78
2022-11-19T08:11:05.064Z,100642.06
2022-11-19T08:12:06.976Z,100633.31
2022-11-19T08:13:09.439Z,100632.38
2022-11-19T08:14:13.193Z,100641.97
2022-11-19T08:15:15.916Z,100642.91
2022-11-19T08:16:39.090Z,100637.66
2022-11-19T08:17:59.373Z,100640.28
2022-11-19T08:19:02.352Z,100640.28
2022-11-19T08:20:04.923Z,100643.66
2022-11-19T08:21:09.403Z,100640.94
2022-11-19T08:22:11.269Z,100647.88
2022-11-19T08:23:13.746Z,100642.72
2022-11-19T08:24:18.119Z,100648.91
2022-11-19T08:25:20.934Z,100642.91
2022-11-19T08:26:23.714Z,100644.91
2022-11-19T08:27:26.346Z,100645.94
2022-11-19T08:28:27.994Z,100654.84
2022-11-19T08:29:31.889Z,100654.13
2022-11-19T08:30:34.541Z,100656.84
2022-11-19T08:31:37.169Z,100662.13
2022-11-19T08:32:39.647Z,100659.56
2022-11-19T08:33:42.201Z,100657.03
2022-11-19T08:34:44.726Z,100658.91
2022-11-19T08:35:46.419Z,100657.22
2022-11-19T08:36:48.967Z,100658.91
2022-11-19T08:37:51.300Z,100657.97
2022-11-19T08:38:53.789Z,100653.66
2022-11-19T08:39:56.269Z,100662.47
2022-11-19T08:41:12.831Z,100660.63
2022-11-19T08:42:32.749Z,100657.03
2022-11-19T08:43:35.266Z,100656.09
2022-11-19T08:44:38.349Z,100660.41
2022-11-19T08:45:40.886Z,100664.66
2022-11-19T08:46:42.467Z,100664.44
2022-11-19T08:47:44.974Z,100656.34
2022-11-19T08:48:46.631Z,100665.09
2022-11-19T08:49:49.143Z,100659.84
2022-11-19T08:50:50.657Z,100664.91
2022-11-19T08:51:53.559Z,100670.94
2022-11-19T08:52:57.019Z,100672.53
2022-11-19T08:53:59.512Z,100670.84
2022-11-19T08:55:02.063Z,100672.53
2022-11-19T08:56:03.770Z,100671.69
2022-11-19T08:57:06.528Z,100680.31
2022-11-19T08:58:08.230Z,100674.13
2022-11-19T08:59:10.744Z,100673.19
2022-11-19T09:00:15.257Z,100667.91
2022-11-19T09:01:18.597Z,100676.75
2022-11-19T09:02:21.123Z,100678.47
2022-11-19T09:03:22.760Z,100683.72
2022-11-19T09:04:25.313Z,100681.09
2022-11-19T09:05:27.328Z,100676.75
2022-11-19T09:06:29.881Z,100680.31
2022-11-19T09:07:31.460Z,100676.94
2022-11-19T09:08:34.550Z,100677.03
2022-11-19T09:09:37.018Z,100681.47
2022-11-19T09:10:39.104Z,100683.91
2022-11-19T09:11:43.072Z,100685.59
2022-11-19T09:12:45.750Z,100682.94
2022-11-19T09:13:47.321Z,100686.34
2022-11-19T09:14:50.396Z,100687.09
2022-11-19T09:15:54.255Z,100690.47
2022-11-19T09:16:55.788Z,100696.59
2022-11-19T09:17:58.331Z,100689.66
2022-11-19T09:19:02.072Z,100699.41
2022-11-19T09:20:04.753Z,100696.88
2022-11-19T09:21:08.401Z,100693.47
2022-11-19T09:22:10.911Z,100692.56
2022-11-19T09:23:13.979Z,100694.06
2022-11-19T09:24:16.562Z,100692.16
2022-11-19T09:25:18.071Z,100689.25
2022-11-19T09:26:20.906Z,100698.75
2022-11-19T09:27:22.466Z,100699.41
2022-11-19T09:28:25.013Z,100707.09
2022-11-19T09:29:27.560Z,100707.94
2022-11-19T09:30:29.376Z,100708.69
2022-11-19T09:31:33.432Z,100714.72
2022-11-19T09:32:36.007Z,100719.88
2022-11-19T09:33:42.003Z,100719.16
2022-11-19T09:34:44.649Z,100711.31
2022-11-19T09:35:46.258Z,100712.25
2022-11-19T09:36:48.748Z,100717.63
2022-11-19T09:37:50.283Z,100709.81
2022-11-19T09:38:57.915Z,100719.63
2022-11-19T09:39:59.583Z,100717.09
2022-11-19T09:41:19.866Z,100717.25
2022-11-19T09:42:28.871Z,100714.75
2022-11-19T09:43:40.205Z,100722.72
2022-11-19T09:45:04.560Z,100716.63
2022-11-19T09:46:15.173Z,100727.91
2022-11-19T09:47:27.103Z,100727.78
2022-11-19T09:48:34.902Z,100719.91
2022-11-19T09:49:42.333Z,100726.97
2022-11-19T09:50:53.529Z,100722.63
2022-11-19T09:52:00.350Z,100727.78
2022-11-19T09:53:07.121Z,100727.72
2022-11-19T09:54:15.347Z,100728.56
2022-11-19T09:55:22.017Z,100727.63
2022-11-19T09:56:28.618Z,100734.56
2022-11-19T09:57:37.643Z,100731.84
2022-11-19T09:58:42.146Z,100728.25
2022-11-19T09:59:44.779Z,100732.50
2022-11-19T10:00:46.469Z,100735.88
2022-11-19T10:01:48.987Z,100737.78
2022-11-19T10:02:53.356Z,100735.16
2022-11-19T10:03:56.120Z,100726.41
2022-11-19T10:04:58.550Z,100729.97
2022-11-19T10:06:19.566Z,100741.53
2022-11-19T10:07:31.828Z,100732.06
2022-11-19T10:08:55.961Z,100735.69
2022-11-19T10:10:13.004Z,100739.19
2022-11-19T10:11:32.626Z,100739.38
2022-11-19T10:13:11.510Z,100742.00
2022-11-19T10:14:34.797Z,100741.94
2022-11-19T10:15:42.581Z,100748.03
2022-11-19T10:16:58.018Z,100742.97
2022-11-19T10:18:11.323Z,100744.84
2022-11-19T10:19:26.109Z,100744.09
2022-11-19T10:21:00.444Z,100746.25
2022-11-19T10:22:10.316Z,100751.81
2022-11-19T10:23:17.415Z,100751.91
2022-11-19T10:24:28.892Z,100756.31
2022-11-19T10:25:36.793Z,100756.13
2022-11-19T10:26:40.815Z,100755.28
2022-11-19T10:27:48.938Z,100759.63
2022-11-19T10:28:57.011Z,100758.00
2022-11-19T10:30:02.737Z,100759.69
2022-11-19T10:31:08.549Z,100762.44
2022-11-19T10:32:21.860Z,100767.53
2022-11-19T10:33:30.640Z,100765.75
2022-11-19T10:34:36.995Z,100764.03
2022-11-19T10:35:43.627Z,100765.81
2022-11-19T10:36:47.950Z,100764.78
2022-11-19T10:37:56.902Z,100763.66
2022-11-19T10:39:04.547Z,100771.16
2022-11-19T10:40:13.252Z,100767.41
2022-11-19T10:41:20.323Z,100769.00
2022-11-19T10:42:28.545Z,100767.03
2022-11-19T10:43:35.649Z,100769.47
2022-11-19T10:44:43.537Z,100764.00
2022-11-19T10:45:45.054Z,100770.78
2022-11-19T10:46:50.024Z,100765.31
2022-11-19T10:47:57.961Z,100768.63
2022-11-19T10:49:02.466Z,100764.75
2022-11-19T10:50:09.873Z,100763.63
2022-11-19T10:51:17.659Z,100768.50
2022-11-19T10:52:26.034Z,100755.03
2022-11-19T10:53:33.272Z,100757.34
2022-11-19T10:54:36.843Z,100749.25
2022-11-19T10:55:42.678Z,100752.53
2022-11-19T10:56:44.461Z,100745.28
2022-11-19T10:57:49.604Z,100747.91
2022-11-19T10:58:55.998Z,100749.81
2022-11-19T10:59:58.991Z,100751.53
2022-11-19T11:01:03.559Z,100751.31
2022-11-19T11:02:26.481Z,100746.91
2022-11-19T11:03:35.537Z,100746.78
2022-11-19T11:05:02.883Z,100745.84
2022-11-19T11:06:09.772Z,100745.84
2022-11-19T11:07:12.469Z,100753.56
2022-11-19T11:08:15.290Z,100747.44
2022-11-19T11:09:29.989Z,100745.66
2022-11-19T11:10:35.930Z,100745.66
2022-11-19T11:11:57.217Z,100752.78
2022-11-19T11:13:24.679Z,100756.38
2022-11-19T11:14:50.295Z,100754.59
2022-11-19T11:15:53.331Z,100745.66
2022-11-19T11:16:54.988Z,100754.09
2022-11-19T11:18:03.031Z,100748.59
2022-11-19T11:19:13.527Z,100748.25
2022-11-19T11:20:28.257Z,100741.91
2022-11-19T11:21:35.589Z,100744.22
2022-11-19T11:22:37.632Z,100747.63
2022-11-19T11:23:50.717Z,100743.84
2022-11-19T11:24:53.372Z,100747.88
2022-11-19T11:26:02.822Z,100743.31
2022-11-19T11:27:21.693Z,100745.09
2022-11-19T11:28:23.951Z,100741.63
2022-11-19T11:29:27.710Z,100743.44
2022-11-19T11:30:29.500Z,100750.72
2022-11-19T11:31:50.048Z,100744.03
2022-11-19T11:32:51.692Z,100747.84
2022-11-19T11:33:56.697Z,100753.31
2022-11-19T11:35:05.099Z,100745.59
2022-11-19T11:36:13.503Z,100744.84
2022-11-19T11:37:16.212Z,100746.63
2022-11-19T11:38:22.118Z,100744.84
2022-11-19T11:39:27.882Z,100753.41
2022-11-19T11:40:30.423Z,100741.91
2022-11-19T11:42:04.916Z,100741.16
2022-11-19T11:43:03.734Z,100743.13
2022-11-19T11:44:08.508Z,100742.41
2022-11-19T11:45:23.492Z,100739.97
2022-11-19T11:46:25.046Z,100740.81
2022-11-19T11:47:30.279Z,100745.25
2022-11-19T11:48:36.959Z,100748.59
2022-11-19T11:49:42.340Z,100742.50
2022-11-19T11:50:45.746Z,100739.13
2022-11-19T11:52:07.213Z,100744.59
2022-11-19T11:53:10.593Z,100739.44
2022-11-19T11:54:18.742Z,100739.59
2022-11-19T11:55:32.443Z,100740.56
2022-11-19T11:56:34.016Z,100738.97
2022-11-19T11:57:38.124Z,100742.63
2022-11-19T11:58:39.638Z,100745.59
2022-11-19T11:59:42.403Z,100746.44
2022-11-19T12:00:45.643Z,100740.97
2022-11-19T12:01:54.598Z,100750.56
2022-11-19T12:03:00.507Z,100743.59
2022-11-19T12:04:03.825Z,100740.97
2022-11-19T12:05:10.785Z,100743.50
2022-11-19T12:06:17.554Z,100746.25
2022-11-19T12:07:44.837Z,100749.06
2022-11-19T12:08:54.144Z,100735.91
2022-11-19T12:10:04.163Z,100735.13
2022-11-19T12:11:13.871Z,100748.44
2022-11-19T12:12:28.330Z,100748.63
2022-11-19T12:13:50.115Z,100748.91
2022-11-19T12:14:59.641Z,100741.09
2022-11-19T12:16:09.731Z,100744.69
2022-11-19T12:17:24.658Z,100749.09
2022-11-19T12:18:37.371Z,100747.41
2022-11-19T12:19:55.495Z,100752.88
2022-11-19T12:21:10.238Z,100748.72
2022-11-19T12:22:25.396Z,100749.91
2022-11-19T12:23:46.306Z,100752.81
2022-11-19T12:25:00.273Z,100745.19
2022-11-19T12:26:14.912Z,100747.72
2022-11-19T12:27:26.098Z,100736.25
2022-11-19T12:28:47.168Z,100734.44
2022-11-19T12:29:57.976Z,100736.88